Time;durP1;ratioP1;P1;durP2;ratioP2;P2;SDS_P1;SDS_P2;PMS_P1;PMS_P2;Temp;Humidity;BMP_temperature;BMP_pressure;BME280_temperature;BME280_humidity;BME280_pressure;Samples;Min_cycle;Max_cycle;Signal;HPM_P1;HPM_P2
2023/04/12 00:01:31;;;;;;;;;;;;;;;-144.99;100.00;52462.34;5001641;28;19937;-67
2023/04/12 00:03:57;;;;;;;;;;;;;;;-144.99;100.00;52435.88;4993668;28;19981;-66
2023/04/12 00:06:31;;;;;;;;;;;;;;;-144.99;100.00;52421.59;4995688;28;19926;-66
2023/04/12 00:08:57;;;;;;;;;;;;;;;-144.99;100.00;52448.09;4997761;28;19980;-68
2023/04/12 00:11:24;;;;;;;;;;;;;;;-144.99;100.00;52435.88;4995563;28;19999;-68
2023/04/12 00:13:51;;;;;;;;;;;;;;;-144.99;100.00;52423.63;4995223;28;19926;-67
2023/04/12 00:16:19;;;;;;;;;;;;;;;-144.99;100.00;52415.47;4990403;28;19934;-67
2023/04/12 00:18:45;;;;;;;;;;;;;;;-144.99;100.00;52433.81;4989413;28;19934;-68
2023/04/12 00:21:12;;;;;;;;;;;;;;;-144.99;100.00;52433.81;4987748;28;19989;-68
2023/04/12 00:23:38;;;;;;;;;;;;;;;-144.99;100.00;52431.78;4999056;28;19972;-68
2023/04/12 00:26:05;;;;;;;;;;;;;;;-144.99;100.00;52429.75;4989939;28;19989;-67
2023/04/12 00:28:32;;;;;;;;;;;;;;;-144.99;100.00;52444.03;4990112;28;20254;-68
2023/04/12 00:30:58;;;;;;;;;;;;;;;-144.99;100.00;52464.41;4984384;28;19930;-69
2023/04/12 00:33:26;;;;;;;;;;;;;;;-144.99;100.00;52427.72;4993065;28;19929;-68
2023/04/12 00:35:53;;;;;;;;;;;;;;;-144.99;100.00;52419.56;4991212;28;19926;-68
2023/04/12 00:38:19;;;;;;;;;;;;;;;-144.99;100.00;52472.56;4983143;28;20089;-68
2023/04/12 00:40:46;;;;;;;;;;;;;;;-144.99;100.00;52444.03;4997601;28;19973;-68
2023/04/12 00:43:17;;;;;;;;;;;;;;;-144.99;100.00;52476.63;4989478;28;19999;-67
2023/04/12 00:45:44;;;;;;;;;;;;;;;-144.99;100.00;52460.31;4996200;28;19932;-69
2023/04/12 00:48:10;;;;;;;;;;;;;;;-144.99;100.00;52466.44;5002549;28;19953;-67
2023/04/12 00:50:43;;;;;;;;;;;;;;;-144.99;100.00;52456.25;4983403;28;19926;-68
2023/04/12 00:53:12;;;;;;;;;;;;;;;-144.99;100.00;52399.19;4997773;28;19933;-68
2023/04/12 00:55:38;;;;;;;;;;;;;;;-144.99;100.00;52435.88;4985975;28;19972;-68
2023/04/12 00:58:05;;;;;;;;;;;;;;;-144.99;100.00;52435.88;4996098;28;19999;-67
2023/04/12 01:00:31;;;;;;;;;;;;;;;-144.99;100.00;52439.94;4988493;28;19938;-67
2023/04/12 01:03:01;;;;;;;;;;;;;;;-144.99;100.00;52448.09;4992992;28;19926;-67
2023/04/12 01:05:28;;;;;;;;;;;;;;;-144.99;100.00;52391.03;4984189;28;19973;-67
2023/04/12 01:08:04;;;;;;;;;;;;;;;-144.99;100.00;52415.47;4996150;28;20000;-66
2023/04/12 01:10:34;;;;;;;;;;;;;;;-144.99;100.00;52452.16;4991688;28;19933;-66
2023/04/12 01:13:05;;;;;;;;;;;;;;;-144.99;100.00;52437.91;4992578;28;19988;-66
2023/04/12 01:15:34;;;;;;;;;;;;;;;-144.99;100.00;52456.25;4996867;28;19926;-67
2023/04/12 01:18:04;;;;;;;;;;;;;;;-144.99;100.00;52444.03;4994787;28;19936;-67
2023/04/12 01:20:34;;;;;;;;;;;;;;;-144.99;100.00;52427.72;4992722;28;19932;-67
2023/04/12 01:23:13;;;;;;;;;;;;;;;-144.99;100.00;52456.25;4995461;28;20033;-67
2023/04/12 01:25:45;;;;;;;;;;;;;;;-144.99;100.00;52476.63;4985798;28;19926;-69
2023/04/12 01:28:15;;;;;;;;;;;;;;;-144.99;100.00;52421.59;4985180;28;19925;-69
2023/04/12 01:30:42;;;;;;;;;;;;;;;-144.99;100.00;52456.25;4994212;28;19980;-68
2023/04/12 01:33:11;;;;;;;;;;;;;;;-144.99;100.00;52474.59;4991901;28;19926;-67
2023/04/12 01:35:37;;;;;;;;;;;;;;;-144.99;100.00;52431.78;4983140;28;20035;-68
2023/04/12 01:38:04;;;;;;;;;;;;;;;-144.99;100.00;52488.84;4988150;28;20343;-68
2023/04/12 01:40:32;;;;;;;;;;;;;;;-144.99;100.00;52444.03;4997781;28;19969;-68
2023/04/12 01:43:05;;;;;;;;;;;;;;;-144.99;100.00;52499.06;4991473;28;19984;-68
2023/04/12 01:45:33;;;;;;;;;;;;;;;-144.99;100.00;52425.66;5000213;28;19961;-68
2023/04/12 01:48:00;;;;;;;;;;;;;;;-144.99;100.00;52444.03;5002122;28;20245;-68
2023/04/12 01:50:33;;;;;;;;;;;;;;;-144.99;100.00;52452.16;4993969;28;20432;-68
2023/04/12 01:53:03;;;;;;;;;;;;;;;-144.99;100.00;52399.19;4984732;28;19930;-68
2023/04/12 01:55:30;;;;;;;;;;;;;;;-144.99;100.00;52429.75;4992292;28;19930;-67
2023/04/12 01:57:57;;;;;;;;;;;;;;;-144.99;100.00;52435.88;4991186;28;19952;-68
2023/04/12 02:00:25;;;;;;;;;;;;;;;-144.99;100.00;52458.28;4986786;28;19926;-68
2023/04/12 02:02:53;;;;;;;;;;;;;;;-144.99;100.00;52421.59;4997972;28;20019;-68
2023/04/12 02:05:19;;;;;;;;;;;;;;;-144.99;100.00;52439.94;4994639;28;19925;-68
2023/04/12 02:07:47;;;;;;;;;;;;;;;-144.99;100.00;52472.56;4995037;28;19970;-68
2023/04/12 02:10:14;;;;;;;;;;;;;;;-144.99;100.00;52427.72;4990785;28;20002;-68
2023/04/12 02:12:40;;;;;;;;;;;;;;;-144.99;100.00;52437.91;4982474;28;20025;-67
2023/04/12 02:15:08;;;;;;;;;;;;;;;-144.99;100.00;52399.19;4996456;28;19933;-66
2023/04/12 02:17:36;;;;;;;;;;;;;;;-144.99;100.00;52419.56;4976401;28;19934;-65
2023/04/12 02:20:05;;;;;;;;;;;;;;;-144.99;100.00;52484.78;4984139;28;20303;-67
2023/04/12 02:22:32;;;;;;;;;;;;;;;-144.99;100.00;52452.16;4986350;28;19999;-67
2023/04/12 02:24:59;;;;;;;;;;;;;;;-144.99;100.00;52462.34;4987577;28;19930;-67
2023/04/12 02:27:26;;;;;;;;;;;;;;;-144.99;100.00;52468.47;4978552;28;19980;-67
2023/04/12 02:29:52;;;;;;;;;;;;;;;-144.99;100.00;52423.63;4982865;28;19930;-67
2023/04/12 02:32:19;;;;;;;;;;;;;;;-144.99;100.00;52429.75;4985592;28;19930;-67
2023/04/12 02:34:50;;;;;;;;;;;;;;;-144.99;100.00;52472.56;4990424;28;19934;-65
2023/04/12 02:37:20;;;;;;;;;;;;;;;-144.99;100.00;52452.16;4982977;28;19937;-67
2023/04/12 02:39:47;;;;;;;;;;;;;;;-144.99;100.00;52423.63;4992115;28;19925;-67
2023/04/12 02:42:13;;;;;;;;;;;;;;;-144.99;100.00;52492.94;4997993;28;20382;-67
2023/04/12 02:44:40;;;;;;;;;;;;;;;-144.99;100.00;52448.09;4995494;28;20000;-65
2023/04/12 02:47:07;;;;;;;;;;;;;;;-144.99;100.00;52454.22;4997843;28;19948;-65
2023/04/12 02:49:33;;;;;;;;;;;;;;;-144.99;100.00;52452.16;4989993;28;19992;-65
2023/04/12 02:52:01;;;;;;;;;;;;;;;-144.99;99.34;52448.09;4983061;28;19929;-65
2023/04/12 02:54:29;;;;;;;;;;;;;;;-144.99;98.89;52472.56;4993486;28;19930;-64
2023/04/12 02:56:55;;;;;;;;;;;;;;;-144.99;98.47;52484.78;4991219;28;19942;-66
2023/04/12 02:59:24;;;;;;;;;;;;;;;-144.99;99.08;52448.09;4982584;28;20402;-66
2023/04/12 03:01:50;;;;;;;;;;;;;;;-144.99;99.46;52476.63;4993778;28;19942;-66
2023/04/12 03:04:17;;;;;;;;;;;;;;;-144.99;98.75;52423.63;4989639;28;19941;-66
2023/04/12 03:06:51;;;;;;;;;;;;;;;-144.99;98.37;52433.81;4995196;28;19987;-66
2023/04/12 03:09:17;;;;;;;;;;;;;;;-144.99;98.03;52423.63;4995830;28;19988;-67
2023/04/12 03:11:45;;;;;;;;;;;;;;;-144.99;97.78;52444.03;4989659;28;19926;-66
2023/04/12 03:14:12;;;;;;;;;;;;;;;-144.99;99.51;52444.03;4996270;28;19926;-66
2023/04/12 03:16:39;;;;;;;;;;;;;;;-144.99;97.58;52407.31;4991454;28;19965;-67
2023/04/12 03:19:06;;;;;;;;;;;;;;;-144.99;97.13;52419.56;4986495;28;20377;-65
2023/04/12 03:21:32;;;;;;;;;;;;;;;-144.99;96.20;52472.56;4986291;28;19988;-64
2023/04/12 03:23:59;;;;;;;;;;;;;;;-144.99;95.66;52425.66;4994049;28;20016;-65
2023/04/12 03:26:26;;;;;;;;;;;;;;;-144.99;96.96;52448.09;4988398;28;20402;-65
2023/04/12 03:28:55;;;;;;;;;;;;;;;-144.99;96.05;52460.31;4986250;28;20029;-66
2023/04/12 03:31:22;;;;;;;;;;;;;;;-144.99;95.18;52435.88;4990420;28;20410;-66
2023/04/12 03:33:49;;;;;;;;;;;;;;;-144.99;94.83;52431.78;4988734;28;19926;-66
2023/04/12 03:36:15;;;;;;;;;;;;;;;-144.99;96.83;52421.59;4995393;28;19926;-64
2023/04/12 03:38:42;;;;;;;;;;;;;;;-144.99;98.25;52433.81;4986859;28;19964;-64
2023/04/12 03:41:08;;;;;;;;;;;;;;;-144.99;98.65;52476.63;4994428;28;19929;-64
2023/04/12 03:43:36;;;;;;;;;;;;;;;-144.99;96.44;52482.75;4992588;28;19969;-64
2023/04/12 03:46:04;;;;;;;;;;;;;;;-144.99;95.52;52448.09;4995833;28;19926;-65
2023/04/12 03:48:31;;;;;;;;;;;;;;;-144.99;94.97;52462.34;5003639;28;20020;-65
2023/04/12 03:50:58;;;;;;;;;;;;;;;-144.99;94.72;52462.34;4988568;28;19969;-65
2023/04/12 03:53:25;;;;;;;;;;;;;;;-144.99;94.36;52423.63;4987705;28;19956;-64
2023/04/12 03:55:52;;;;;;;;;;;;;;;-144.99;93.96;52478.66;4984491;28;19965;-65
2023/04/12 03:58:20;;;;;;;;;;;;;;;-144.99;93.71;52476.63;4992506;28;20356;-65
2023/04/12 04:00:47;;;;;;;;;;;;;;;-144.99;93.63;52437.91;4992005;28;20222;-64
2023/04/12 04:03:15;;;;;;;;;;;;;;;-144.99;93.35;52444.03;4994223;28;20000;-65
2023/04/12 04:05:42;;;;;;;;;;;;;;;-144.99;93.10;52399.19;4982749;28;19934;-65
2023/04/12 04:08:08;;;;;;;;;;;;;;;-144.99;93.22;52480.72;4994582;28;19929;-65
2023/04/12 04:10:35;;;;;;;;;;;;;;;-144.99;92.54;52421.59;4996311;28;20377;-65
2023/04/12 04:13:02;;;;;;;;;;;;;;;-144.99;92.17;52403.25;4986493;28;20055;-66
2023/04/12 04:15:28;;;;;;;;;;;;;;;-144.99;91.82;52460.31;4996806;28;20269;-66
2023/04/12 04:17:55;;;;;;;;;;;;;;;-144.99;91.68;52476.63;4993321;28;20480;-66
2023/04/12 04:20:22;;;;;;;;;;;;;;;-144.99;91.68;52480.72;4998835;28;19969;-66
2023/04/12 04:22:52;;;;;;;;;;;;;;;-144.99;90.90;52446.06;4996323;28;19926;-66
2023/04/12 04:25:18;;;;;;;;;;;;;;;-144.99;91.01;52415.47;4991687;28;20009;-66
2023/04/12 04:27:45;;;;;;;;;;;;;;;-144.99;93.33;52472.56;4990811;28;19926;-67
2023/04/12 04:30:13;;;;;;;;;;;;;;;-144.99;94.52;52456.25;4991856;28;20398;-67
2023/04/12 04:32:40;;;;;;;;;;;;;;;-144.99;93.19;52452.16;4990468;28;19941;-66
2023/04/12 04:35:07;;;;;;;;;;;;;;;-144.99;92.31;52444.03;4981490;28;19934;-65
2023/04/12 04:37:36;;;;;;;;;;;;;;;-144.99;92.46;52460.31;4984273;28;20234;-67
2023/04/12 04:40:06;;;;;;;;;;;;;;;-144.99;91.60;52458.28;4996513;28;19929;-69
2023/04/12 04:42:33;;;;;;;;;;;;;;;-144.99;91.47;52401.22;4992124;28;20330;-68
2023/04/12 04:45:03;;;;;;;;;;;;;;;-144.99;91.81;52444.03;4997173;28;20438;-69
2023/04/12 04:47:30;;;;;;;;;;;;;;;-144.99;91.46;52439.94;5002969;28;19976;-68
2023/04/12 04:49:56;;;;;;;;;;;;;;;-144.99;92.14;52427.72;4992359;28;19926;-68
2023/04/12 04:52:23;;;;;;;;;;;;;;;-144.99;90.83;52433.81;4986956;28;20293;-69
2023/04/12 04:54:51;;;;;;;;;;;;;;;-144.99;90.95;52423.63;4990224;28;19925;-69
2023/04/12 04:57:17;;;;;;;;;;;;;;;-144.99;90.62;52427.72;4995194;28;20063;-68
2023/04/12 04:59:44;;;;;;;;;;;;;;;-144.99;91.48;52444.03;5001379;28;20048;-68
2023/04/12 05:02:10;;;;;;;;;;;;;;;-144.99;92.61;52456.25;4996370;28;19926;-69
2023/04/12 05:04:37;;;;;;;;;;;;;;;-144.99;92.98;52454.22;4994627;28;20310;-69
2023/04/12 05:07:04;;;;;;;;;;;;;;;-144.99;92.95;52478.66;4997708;28;20012;-68
2023/04/12 05:09:30;;;;;;;;;;;;;;;-144.99;92.78;52435.88;4996751;28;19937;-70
2023/04/12 05:11:58;;;;;;;;;;;;;;;-144.99;92.65;52464.41;4991333;28;19980;-68
2023/04/12 05:14:25;;;;;;;;;;;;;;;-144.99;92.45;52435.88;4999895;28;19926;-69
2023/04/12 05:16:52;;;;;;;;;;;;;;;-144.99;92.47;52460.31;4979110;28;19961;-68
2023/04/12 05:19:18;;;;;;;;;;;;;;;-144.99;90.33;52441.97;4987338;28;19929;-68
2023/04/12 05:21:45;;;;;;;;;;;;;;;-144.99;88.72;52444.03;4992361;28;19996;-69
2023/04/12 05:24:11;;;;;;;;;;;;;;;-144.99;88.08;52439.94;4990015;28;19933;-68
2023/04/12 05:26:38;;;;;;;;;;;;;;;-144.99;87.76;52448.09;4989849;28;20004;-68
2023/04/12 05:29:06;;;;;;;;;;;;;;;-144.99;87.09;52464.41;4990494;28;20021;-67
2023/04/12 05:31:32;;;;;;;;;;;;;;;-144.99;86.62;52456.25;4991630;28;20406;-68
2023/04/12 05:33:59;;;;;;;;;;;;;;;-144.99;86.47;52484.78;4990576;28;19984;-69
2023/04/12 05:36:26;;;;;;;;;;;;;;;-144.99;86.42;52429.75;4991708;28;20045;-68
2023/04/12 05:38:53;;;;;;;;;;;;;;;-144.99;85.87;52403.25;4982189;28;20395;-68
2023/04/12 05:41:19;;;;;;;;;;;;;;;-144.99;86.35;52448.09;4996900;28;19953;-66
2023/04/12 05:43:46;;;;;;;;;;;;;;;-144.99;85.96;52415.47;4994336;28;20360;-68
2023/04/12 05:46:14;;;;;;;;;;;;;;;-144.99;85.56;52397.13;4998240;28;19987;-67
2023/04/12 05:48:40;;;;;;;;;;;;;;;-144.99;85.52;52470.50;5002398;28;19969;-67
2023/04/12 05:51:07;;;;;;;;;;;;;;;-144.99;85.12;52427.72;4988068;28;19974;-68
2023/04/12 05:53:34;;;;;;;;;;;;;;;-144.99;85.08;52395.09;4995384;28;19929;-67
2023/04/12 05:56:00;;;;;;;;;;;;;;;-144.99;84.91;52480.72;4993802;28;19934;-66
2023/04/12 05:58:27;;;;;;;;;;;;;;;-144.99;84.72;52480.72;5000513;28;20350;-67
2023/04/12 06:00:55;;;;;;;;;;;;;;;-144.99;84.24;52439.94;4994190;28;19969;-67
2023/04/12 06:03:23;;;;;;;;;;;;;;;-144.99;83.56;52407.31;4986533;28;20338;-67
2023/04/12 06:05:51;;;;;;;;;;;;;;;-144.99;83.09;52468.47;4994930;28;19926;-67
2023/04/12 06:08:18;;;;;;;;;;;;;;;-144.99;83.01;52391.03;4996130;28;19969;-66
2023/04/12 06:10:45;;;;;;;;;;;;;;;-144.99;82.46;52450.13;4994684;28;19926;-66
2023/04/12 06:13:11;;;;;;;;;;;;;;;-144.99;82.04;52411.41;4989352;28;20081;-69
2023/04/12 06:15:38;;;;;;;;;;;;;;;-144.99;81.40;52417.53;4996219;28;20394;-67
2023/04/12 06:18:06;;;;;;;;;;;;;;;-144.99;80.87;52395.09;4993839;28;20023;-66
2023/04/12 06:20:34;;;;;;;;;;;;;;;-144.99;82.37;52439.94;4999872;28;19933;-68
2023/04/12 06:23:01;;;;;;;;;;;;;;;-144.99;82.78;52431.78;4989135;28;19965;-68
2023/04/12 06:25:27;;;;;;;;;;;;;;;-144.99;82.23;52439.94;4988767;28;19926;-67
2023/04/12 06:27:54;;;;;;;;;;;;;;;-144.99;81.90;52393.06;4989676;28;20340;-67
2023/04/12 06:30:20;;;;;;;;;;;;;;;-144.99;81.47;52403.25;4992003;28;19925;-68
2023/04/12 06:32:47;;;;;;;;;;;;;;;-144.99;81.24;52411.41;4981567;28;19996;-67
2023/04/12 06:35:13;;;;;;;;;;;;;;;-144.99;80.92;52429.75;4989130;28;19950;-68
2023/04/12 06:37:41;;;;;;;;;;;;;;;-144.99;80.91;52439.94;4989877;28;19992;-68
2023/04/12 06:40:08;;;;;;;;;;;;;;;-144.99;80.47;52374.72;4993940;28;20035;-68
2023/04/12 06:42:35;;;;;;;;;;;;;;;-144.99;78.76;52382.88;4995937;28;19930;-68
2023/04/12 06:45:02;;;;;;;;;;;;;;;-144.99;78.61;52395.09;4994352;28;20414;-66
2023/04/12 06:47:28;;;;;;;;;;;;;;;-144.99;79.30;52366.56;5000928;28;19932;-67
2023/04/12 06:49:56;;;;;;;;;;;;;;;-144.99;77.83;52354.34;4991102;28;20001;-67
2023/04/12 06:52:23;;;;;;;;;;;;;;;-144.99;76.59;52399.19;4995136;28;19926;-67
2023/04/12 06:54:51;;;;;;;;;;;;;;;-144.99;76.77;52415.47;4990259;28;20001;-66
2023/04/12 06:57:18;;;;;;;;;;;;;;;-144.99;76.34;52370.63;4992724;28;20377;-66
2023/04/12 06:59:44;;;;;;;;;;;;;;;-144.99;76.29;52358.41;4998377;28;19925;-66
2023/04/12 07:02:11;;;;;;;;;;;;;;;-144.99;76.25;52399.19;4994174;28;19968;-66
2023/04/12 07:04:37;;;;;;;;;;;;;;;-144.99;76.48;52399.19;4992255;28;19995;-66
2023/04/12 07:07:04;;;;;;;;;;;;;;;-144.99;76.57;52399.19;4988435;28;19990;-67
2023/04/12 07:09:32;;;;;;;;;;;;;;;-144.99;76.48;52419.56;4997006;28;20044;-66
2023/04/12 07:11:59;;;;;;;;;;;;;;;-144.99;76.58;52419.56;4989004;28;19964;-64
2023/04/12 07:14:26;;;;;;;;;;;;;;;-144.99;76.50;52419.56;4995363;28;19925;-65
2023/04/12 07:16:52;;;;;;;;;;;;;;;-144.99;76.85;52448.09;4989871;28;20288;-65
2023/04/12 07:19:19;;;;;;;;;;;;;;;-144.99;77.31;52407.31;4998735;28;19929;-66
2023/04/12 07:21:45;;;;;;;;;;;;;;;-144.99;76.61;52407.31;4991353;28;19988;-65
2023/04/12 07:24:12;;;;;;;;;;;;;;;-144.99;76.38;52403.25;4993332;28;19969;-66
2023/04/12 07:26:38;;;;;;;;;;;;;;;-144.99;76.45;52380.84;4987400;28;19957;-66
2023/04/12 07:29:06;;;;;;;;;;;;;;;-144.99;76.20;52413.44;4988245;28;19988;-67
2023/04/12 07:31:33;;;;;;;;;;;;;;;-144.99;76.55;52399.19;4988210;28;19930;-66
2023/04/12 07:33:59;;;;;;;;;;;;;;;-144.99;76.57;52423.63;4984192;28;20221;-67
2023/04/12 07:36:26;;;;;;;;;;;;;;;-144.99;76.48;52419.56;4983008;28;19980;-67
2023/04/12 07:38:54;;;;;;;;;;;;;;;-144.99;76.54;52386.94;4989926;28;20500;-66
2023/04/12 07:41:21;;;;;;;;;;;;;;;-144.99;76.41;52391.03;4993404;28;19925;-64
2023/04/12 07:43:47;;;;;;;;;;;;;;;-144.99;76.66;52395.09;4991748;28;20017;-65
2023/04/12 07:46:15;;;;;;;;;;;;;;;-144.99;76.62;52427.72;4998457;28;20006;-65
2023/04/12 07:48:42;;;;;;;;;;;;;;;-144.99;76.38;52448.09;5002591;28;20019;-65
2023/04/12 07:51:08;;;;;;;;;;;;;;;-144.99;76.41;52391.03;4989167;28;20154;-66
2023/04/12 07:53:35;;;;;;;;;;;;;;;-144.99;76.20;52395.09;4996572;28;20344;-65
2023/04/12 07:56:03;;;;;;;;;;;;;;;-144.99;76.36;52427.72;4993735;28;19981;-66
2023/04/12 07:58:30;;;;;;;;;;;;;;;-144.99;76.37;52382.88;5001744;28;19991;-67
2023/04/12 08:00:57;;;;;;;;;;;;;;;-144.99;76.25;52380.84;4995990;28;19937;-67
2023/04/12 08:03:25;;;;;;;;;;;;;;;-144.99;76.47;52403.25;4995863;28;20012;-66
2023/04/12 08:05:53;;;;;;;;;;;;;;;-144.99;76.63;52399.19;4997498;28;19926;-66
2023/04/12 08:08:20;;;;;;;;;;;;;;;-144.99;76.55;52403.25;4997628;28;19969;-67
2023/04/12 08:10:47;;;;;;;;;;;;;;;-144.99;76.43;52352.28;4987903;28;19983;-67
2023/04/12 08:13:14;;;;;;;;;;;;;;;-144.99;76.49;52435.88;4998969;28;19932;-67
2023/04/12 08:15:42;;;;;;;;;;;;;;;-144.99;76.39;52376.75;4996191;28;20168;-67
2023/04/12 08:18:08;;;;;;;;;;;;;;;-144.99;76.06;52437.91;4989448;28;19987;-67
2023/04/12 08:20:39;;;;;;;;;;;;;;;-144.99;76.08;52386.94;4999418;28;19961;-67
2023/04/12 08:23:06;;;;;;;;;;;;;;;-144.99;76.15;52386.94;4990119;28;20134;-67
2023/04/12 08:25:32;;;;;;;;;;;;;;;-144.99;75.94;52431.78;4989374;28;19938;-67
2023/04/12 08:27:59;;;;;;;;;;;;;;;-144.99;75.68;52427.72;4990730;28;19930;-67
2023/04/12 08:30:26;;;;;;;;;;;;;;;-144.99;76.00;52423.63;4991179;28;19933;-67
2023/04/12 08:32:53;;;;;;;;;;;;;;;-144.99;75.80;52399.19;4983032;28;19937;-68
2023/04/12 08:35:20;;;;;;;;;;;;;;;-144.99;75.69;52427.72;4990980;28;19926;-67
2023/04/12 08:37:48;;;;;;;;;;;;;;;-144.99;75.62;52407.31;4990052;28;19933;-67
2023/04/12 08:40:15;;;;;;;;;;;;;;;-144.99;75.37;52395.09;4997329;28;19932;-69
2023/04/12 08:42:42;;;;;;;;;;;;;;;-144.99;75.13;52417.53;4989112;28;20377;-68
2023/04/12 08:45:10;;;;;;;;;;;;;;;-144.99;75.46;52415.47;4999192;28;19991;-68
2023/04/12 08:47:37;;;;;;;;;;;;;;;-144.99;75.16;52393.06;5001842;28;19929;-67
2023/04/12 08:50:08;;;;;;;;;;;;;;;-144.99;74.80;52407.31;4994955;28;19980;-68
2023/04/12 08:52:35;;;;;;;;;;;;;;;-144.99;74.36;52374.72;4992817;28;20021;-68
2023/04/12 08:55:03;;;;;;;;;;;;;;;-144.99;75.49;52413.44;4995069;28;20019;-69
2023/04/12 08:57:31;;;;;;;;;;;;;;;-144.99;75.99;52403.25;4994541;28;20052;-68
2023/04/12 08:59:59;;;;;;;;;;;;;;;-144.99;75.63;52427.72;4985725;28;19930;-69
2023/04/12 09:02:26;;;;;;;;;;;;;;;-144.99;76.13;52423.63;4996692;28;19964;-67
2023/04/12 09:04:52;;;;;;;;;;;;;;;-144.99;74.92;52386.94;4994168;28;20295;-67
2023/04/12 09:07:21;;;;;;;;;;;;;;;-144.99;74.48;52429.75;4998713;28;20278;-67
2023/04/12 09:09:48;;;;;;;;;;;;;;;-144.99;73.90;52374.72;4984495;28;20020;-68
2023/04/12 09:12:18;;;;;;;;;;;;;;;-144.99;74.14;52382.88;4985073;28;19934;-67
2023/04/12 09:14:45;;;;;;;;;;;;;;;-144.99;73.90;52411.41;4996323;28;19984;-66
2023/04/12 09:17:22;;;;;;;;;;;;;;;-144.99;73.84;52403.25;4994234;28;19933;-66
2023/04/12 09:19:48;;;;;;;;;;;;;;;-144.99;73.47;52401.22;4998151;28;19932;-66
2023/04/12 09:22:15;;;;;;;;;;;;;;;-144.99;73.50;52407.31;4997130;28;20319;-65
2023/04/12 09:24:45;;;;;;;;;;;;;;;-144.99;73.65;52423.63;4990846;28;19930;-67
2023/04/12 09:27:12;;;;;;;;;;;;;;;-144.99;73.19;52395.09;4994147;28;20417;-66
2023/04/12 09:29:40;;;;;;;;;;;;;;;-144.99;73.09;52439.94;4983236;28;19976;-66
2023/04/12 09:32:07;;;;;;;;;;;;;;;-144.99;72.79;52364.53;4992739;28;19981;-66
2023/04/12 09:34:35;;;;;;;;;;;;;;;-144.99;72.76;52407.31;4989775;28;19937;-66
2023/04/12 09:37:12;;;;;;;;;;;;;;;-144.99;72.33;52435.88;4990249;28;19925;-66
2023/04/12 09:39:38;;;;;;;;;;;;;;;-144.99;72.65;52370.63;4992141;28;19933;-66
2023/04/12 09:42:06;;;;;;;;;;;;;;;-144.99;72.72;52419.56;4997550;28;19972;-67
2023/04/12 09:44:33;;;;;;;;;;;;;;;-144.99;72.64;52415.47;4994769;28;20005;-67
2023/04/12 09:47:01;;;;;;;;;;;;;;;-144.99;72.63;52429.75;5002198;28;20054;-65
2023/04/12 09:49:38;;;;;;;;;;;;;;;-144.99;72.77;52407.31;4997006;28;19926;-65
2023/04/12 09:52:05;;;;;;;;;;;;;;;-144.99;73.04;52419.56;4998918;28;20471;-65
2023/04/12 09:54:33;;;;;;;;;;;;;;;-144.99;73.02;52407.31;4993589;28;19985;-64
2023/04/12 09:57:01;;;;;;;;;;;;;;;-144.99;73.20;52386.94;4993808;28;19934;-64
2023/04/12 09:59:30;;;;;;;;;;;;;;;-144.99;73.07;52391.03;4998721;28;19934;-64
2023/04/12 10:01:56;;;;;;;;;;;;;;;-144.99;73.79;52423.63;4994991;28;19926;-66
2023/04/12 10:04:25;;;;;;;;;;;;;;;-144.99;73.61;52401.22;4992593;28;20024;-67
2023/04/12 10:06:52;;;;;;;;;;;;;;;-144.99;74.10;52403.25;4989036;28;20000;-64
2023/04/12 10:09:19;;;;;;;;;;;;;;;-144.99;74.43;52407.31;4994798;28;19964;-66
2023/04/12 10:11:46;;;;;;;;;;;;;;;-144.99;74.32;52370.63;4998022;28;19925;-66
2023/04/12 10:14:13;;;;;;;;;;;;;;;-144.99;74.60;52395.09;4994156;28;20394;-66
2023/04/12 10:16:40;;;;;;;;;;;;;;;-144.99;74.24;52366.56;4990604;28;19953;-67
2023/04/12 10:19:07;;;;;;;;;;;;;;;-144.99;73.96;52393.06;4982397;28;20048;-66
2023/04/12 10:21:35;;;;;;;;;;;;;;;-144.99;73.81;52403.25;4991005;28;20358;-65
2023/04/12 10:24:02;;;;;;;;;;;;;;;-144.99;74.43;52382.88;4989979;28;20431;-66
2023/04/12 10:26:28;;;;;;;;;;;;;;;-144.99;74.96;52384.91;4981665;28;20411;-65
2023/04/12 10:29:13;;;;;;;;;;;;;;;-144.99;75.51;52382.88;4992088;28;20429;-64
2023/04/12 10:31:41;;;;;;;;;;;;;;;-144.99;76.58;52382.88;4992536;28;20025;-66
2023/04/12 10:34:07;;;;;;;;;;;;;;;-144.99;77.56;52378.78;4997873;28;20000;-67
2023/04/12 10:36:54;;;;;;;;;;;;;;;-144.99;79.94;52358.41;4991853;28;19929;-67
2023/04/12 10:39:35;;;;;;;;;;;;;;;-144.99;82.28;52403.25;4987443;28;19926;-64
2023/04/12 10:42:21;;;;;;;;;;;;;;;-144.99;83.76;52419.56;4994168;28;20025;-67
2023/04/12 10:44:49;;;;;;;;;;;;;;;-144.99;85.23;52421.59;4994304;28;19965;-67
2023/04/12 10:47:16;;;;;;;;;;;;;;;-144.99;85.84;52441.97;5002191;28;20223;-66
2023/04/12 10:50:10;;;;;;;;;;;;;;;-144.99;86.90;52427.72;4995035;28;19926;-66
2023/04/12 10:52:40;;;;;;;;;;;;;;;-144.99;89.20;52431.78;4991814;28;20387;-68
2023/04/12 10:55:21;;;;;;;;;;;;;;;-144.99;89.60;52354.34;4979880;28;20364;-71
2023/04/12 10:57:48;;;;;;;;;;;;;;;-144.99;91.12;52439.94;4994888;28;20007;-67
2023/04/12 11:00:15;;;;;;;;;;;;;;;-144.99;91.85;52458.28;4987018;28;19926;-71
2023/04/12 11:02:59;;;;;;;;;;;;;;;-144.99;92.31;52411.41;4987714;28;19925;-68
2023/04/12 11:05:26;;;;;;;;;;;;;;;-144.99;93.88;52448.09;4984878;28;19962;-69
2023/04/12 11:07:54;;;;;;;;;;;;;;;-144.99;95.13;52454.22;4997409;28;20328;-69
2023/04/12 11:10:21;;;;;;;;;;;;;;;-144.99;95.55;52448.09;4987649;28;19965;-69
2023/04/12 11:12:48;;;;;;;;;;;;;;;-144.99;96.41;52419.56;4982323;28;20011;-68
2023/04/12 11:15:15;;;;;;;;;;;;;;;-144.99;97.18;52431.78;4995658;28;19926;-67
2023/04/12 11:17:42;;;;;;;;;;;;;;;-144.99;97.69;52415.47;4994351;28;19987;-68
2023/04/12 11:20:11;;;;;;;;;;;;;;;-144.99;99.02;52456.25;4987272;28;19929;-68
2023/04/12 11:22:38;;;;;;;;;;;;;;;-144.99;98.87;52423.63;4995543;28;20003;-67
2023/04/12 11:25:06;;;;;;;;;;;;;;;-144.99;100.00;52439.94;4989911;28;19962;-67
2023/04/12 11:27:33;;;;;;;;;;;;;;;-144.99;100.00;52448.09;4981014;28;20085;-68
2023/04/12 11:30:00;;;;;;;;;;;;;;;-144.99;100.00;52468.47;4987208;28;19992;-66
2023/04/12 11:32:29;;;;;;;;;;;;;;;-144.99;100.00;52417.53;4991733;28;20390;-68
2023/04/12 11:34:56;;;;;;;;;;;;;;;-144.99;100.00;52468.47;4988625;28;20443;-68
2023/04/12 11:37:25;;;;;;;;;;;;;;;-144.99;100.00;52431.78;4988626;28;20303;-68
2023/04/12 11:39:53;;;;;;;;;;;;;;;-144.99;100.00;52456.25;4987732;28;19999;-68
2023/04/12 11:42:23;;;;;;;;;;;;;;;-144.99;100.00;52435.88;4996941;28;19931;-70
2023/04/12 11:44:50;;;;;;;;;;;;;;;-144.99;100.00;52468.47;4991439;28;20461;-69
2023/04/12 11:47:17;;;;;;;;;;;;;;;-144.99;100.00;52419.56;5000403;28;19926;-68
2023/04/12 11:49:45;;;;;;;;;;;;;;;-144.99;100.00;52399.19;4991650;28;19981;-70
2023/04/12 11:52:12;;;;;;;;;;;;;;;-144.99;100.00;52407.31;4981324;28;19926;-72
2023/04/12 11:54:41;;;;;;;;;;;;;;;-144.99;100.00;52399.19;4987589;28;20020;-70
2023/04/12 11:57:11;;;;;;;;;;;;;;;-144.99;100.00;52431.78;4988777;28;19933;-71
2023/04/12 11:59:39;;;;;;;;;;;;;;;-144.99;100.00;52448.09;4996718;28;20008;-68
2023/04/12 12:02:06;;;;;;;;;;;;;;;-144.99;100.00;52423.63;4981901;28;19945;-68
2023/04/12 12:04:32;;;;;;;;;;;;;;;-144.99;100.00;52399.19;4993613;28;19930;-67
2023/04/12 12:06:59;;;;;;;;;;;;;;;-144.99;100.00;52395.09;4991554;28;19965;-67
2023/04/12 12:09:26;;;;;;;;;;;;;;;-144.99;100.00;52421.59;4994588;28;20297;-69
2023/04/12 12:11:54;;;;;;;;;;;;;;;-144.99;100.00;52399.19;4982035;28;19988;-67
2023/04/12 12:14:20;;;;;;;;;;;;;;;-144.99;100.00;52435.88;4989918;28;20020;-68
2023/04/12 12:16:58;;;;;;;;;;;;;;;-144.99;100.00;52444.03;4984951;28;20407;-68
2023/04/12 12:19:32;;;;;;;;;;;;;;;-144.99;100.00;52427.72;4996132;28;19929;-68
2023/04/12 12:22:05;;;;;;;;;;;;;;;-144.99;100.00;52415.47;4993089;28;19929;-69
2023/04/12 12:24:32;;;;;;;;;;;;;;;-144.99;100.00;52417.53;4989914;28;19961;-67
2023/04/12 12:27:01;;;;;;;;;;;;;;;-144.99;100.00;52403.25;4988293;28;19956;-67